createdAt,value
2022-10-02T00:01:42.098Z,1.50
2022-10-02T00:04:12.899Z,1.83
2022-10-02T00:06:43.142Z,2.00
2022-10-02T00:09:14.715Z,1.38
2022-10-02T00:11:46.339Z,1.10
2022-10-02T00:14:16.478Z,1.23
2022-10-02T00:16:46.544Z,0.80
2022-10-02T00:19:17.000Z,1.33
2022-10-02T00:21:44.177Z,1.20
2022-10-02T00:24:23.172Z,1.30
2022-10-02T00:26:57.756Z,1.85
2022-10-02T00:29:24.988Z,1.10
2022-10-02T00:31:52.178Z,1.00
2022-10-02T00:34:38.260Z,1.23
2022-10-02T00:37:05.457Z,0.95
2022-10-02T00:39:38.901Z,0.73
2022-10-02T00:42:25.037Z,0.80
2022-10-02T00:44:57.636Z,0.50
2022-10-02T00:47:27.644Z,0.65
2022-10-02T00:49:57.652Z,1.70
2022-10-02T00:52:24.813Z,0.90
2022-10-02T00:54:58.912Z,0.70
2022-10-02T00:57:38.267Z,0.60
2022-10-02T01:00:06.133Z,1.10
2022-10-02T01:02:42.197Z,0.80
2022-10-02T01:05:10.407Z,0.73
2022-10-02T01:07:39.895Z,0.68
2022-10-02T01:10:08.644Z,1.25
2022-10-02T01:12:35.986Z,0.70
2022-10-02T01:15:03.223Z,0.60
2022-10-02T01:17:32.429Z,1.00
2022-10-02T01:20:02.305Z,0.80
2022-10-02T01:22:29.508Z,0.80
2022-10-02T01:24:57.817Z,0.50
2022-10-02T01:27:25.906Z,0.80
2022-10-02T01:29:55.577Z,0.80
2022-10-02T01:32:26.049Z,0.60
2022-10-02T01:34:54.177Z,0.68
2022-10-02T01:37:22.377Z,0.80
2022-10-02T01:39:49.769Z,0.60
2022-10-02T01:42:17.263Z,1.20
2022-10-02T01:44:45.538Z,0.90
2022-10-02T01:47:16.182Z,0.80
2022-10-02T01:49:58.688Z,0.90
2022-10-02T01:52:40.852Z,0.63
2022-10-02T01:55:16.891Z,1.00
2022-10-02T01:57:46.828Z,1.65
2022-10-02T02:00:18.578Z,0.93
2022-10-02T02:03:00.875Z,1.37
2022-10-02T02:05:46.928Z,1.40
2022-10-02T02:08:31.490Z,1.40
2022-10-02T02:11:07.544Z,1.02
2022-10-02T02:13:53.686Z,0.80
2022-10-02T02:16:24.553Z,0.95
2022-10-02T02:19:00.448Z,0.73
2022-10-02T02:21:53.964Z,0.90
2022-10-02T02:24:24.296Z,0.80
2022-10-02T02:26:53.396Z,0.82
2022-10-02T02:29:21.449Z,0.90
2022-10-02T02:31:50.973Z,1.17
2022-10-02T02:34:20.834Z,0.82
2022-10-02T02:36:51.334Z,1.20
2022-10-02T02:39:31.657Z,1.40
2022-10-02T02:42:01.043Z,0.98
2022-10-02T02:44:31.263Z,0.80
2022-10-02T02:47:04.081Z,1.33
2022-10-02T02:49:38.700Z,1.13
2022-10-02T02:52:08.518Z,1.70
2022-10-02T02:54:38.281Z,1.00
2022-10-02T02:57:07.005Z,1.10
2022-10-02T02:59:35.697Z,0.80
2022-10-02T03:02:02.966Z,1.00
2022-10-02T03:04:30.294Z,1.33
2022-10-02T03:06:59.668Z,1.50
2022-10-02T03:09:27.463Z,0.93
2022-10-02T03:12:12.250Z,1.20
2022-10-02T03:14:54.633Z,1.05
2022-10-02T03:17:31.000Z,1.17
2022-10-02T03:20:10.199Z,0.93
2022-10-02T03:22:55.388Z,1.00
2022-10-02T03:25:22.628Z,0.80
2022-10-02T03:27:55.986Z,1.35
2022-10-02T03:30:24.439Z,0.82
2022-10-02T03:32:53.671Z,1.48
2022-10-02T03:35:22.062Z,1.10
2022-10-02T03:37:50.818Z,1.02
2022-10-02T03:40:18.166Z,0.90
2022-10-02T03:42:45.489Z,1.00
2022-10-02T03:45:23.209Z,1.45
2022-10-02T03:47:59.877Z,1.25
2022-10-02T03:50:27.089Z,0.93
2022-10-02T03:52:54.360Z,0.93
2022-10-02T03:55:35.989Z,1.10
2022-10-02T03:58:06.458Z,1.05
2022-10-02T04:00:36.841Z,0.98
2022-10-02T04:03:07.179Z,1.45
2022-10-02T04:05:46.347Z,0.77
2022-10-02T04:08:18.653Z,0.93
2022-10-02T04:10:48.886Z,0.93
2022-10-02T04:13:32.510Z,0.95
2022-10-02T04:16:09.092Z,0.80
2022-10-02T04:18:49.988Z,0.77
2022-10-02T04:21:32.192Z,1.30
2022-10-02T04:24:03.377Z,1.17
2022-10-02T04:26:34.155Z,1.05
2022-10-02T04:29:17.529Z,0.73
2022-10-02T04:31:47.183Z,0.70
2022-10-02T04:34:14.736Z,0.77
2022-10-02T04:36:53.248Z,0.80
2022-10-02T04:39:26.699Z,0.63
2022-10-02T04:42:03.029Z,1.23
2022-10-02T04:44:49.226Z,0.75
2022-10-02T04:47:31.732Z,0.77
2022-10-02T04:50:02.099Z,1.23
2022-10-02T04:52:48.485Z,0.80
2022-10-02T04:55:30.958Z,0.75
2022-10-02T04:57:58.136Z,1.00
2022-10-02T05:00:26.846Z,0.90
2022-10-02T05:02:54.022Z,1.08
2022-10-02T05:05:33.381Z,0.98
2022-10-02T05:08:03.449Z,0.60
2022-10-02T05:10:49.678Z,0.65
2022-10-02T05:13:34.028Z,0.80
2022-10-02T05:16:08.989Z,0.70
2022-10-02T05:18:39.265Z,0.88
2022-10-02T05:21:32.764Z,0.90
2022-10-02T05:24:09.227Z,1.23
2022-10-02T05:26:54.545Z,0.80
2022-10-02T05:29:38.054Z,0.73
2022-10-02T05:32:23.683Z,0.77
2022-10-02T05:35:02.875Z,0.60
2022-10-02T05:37:33.010Z,0.80
2022-10-02T05:40:03.070Z,0.68
2022-10-02T05:42:30.323Z,0.60
2022-10-02T05:45:05.499Z,0.60
2022-10-02T05:47:36.065Z,1.10
2022-10-02T05:50:06.128Z,0.73
2022-10-02T05:52:42.540Z,0.85
2022-10-02T05:55:29.514Z,0.70
2022-10-02T05:58:00.236Z,0.70
2022-10-02T06:00:35.677Z,0.70
2022-10-02T06:03:12.968Z,0.70
2022-10-02T06:05:50.322Z,0.63
2022-10-02T06:08:21.854Z,0.47
2022-10-02T06:10:54.985Z,0.70
2022-10-02T06:13:30.791Z,0.90
2022-10-02T06:16:05.093Z,0.80
2022-10-02T06:18:34.661Z,1.48
2022-10-02T06:21:01.867Z,0.80
2022-10-02T06:23:32.141Z,0.63
2022-10-02T06:26:05.521Z,0.80
2022-10-02T06:28:54.219Z,0.77
2022-10-02T06:31:21.562Z,0.57
2022-10-02T06:33:48.846Z,1.23
2022-10-02T06:36:22.484Z,0.80
2022-10-02T06:38:52.540Z,0.63
2022-10-02T06:41:29.452Z,1.80
2022-10-02T06:44:05.586Z,1.10
2022-10-02T06:46:39.115Z,0.73
2022-10-02T06:49:12.297Z,0.80
2022-10-02T06:51:50.387Z,1.20
2022-10-02T06:54:20.369Z,1.13
2022-10-02T06:56:56.574Z,0.88
2022-10-02T06:59:35.819Z,1.08
2022-10-02T07:02:09.252Z,0.80
2022-10-02T07:04:48.920Z,0.73
2022-10-02T07:07:27.562Z,0.82
2022-10-02T07:10:02.148Z,0.55
2022-10-02T07:12:35.405Z,1.10
2022-10-02T07:15:11.846Z,1.13
2022-10-02T07:17:41.925Z,0.85
2022-10-02T07:20:45.468Z,0.60
2022-10-02T07:23:13.561Z,0.70
2022-10-02T07:25:46.588Z,1.00
2022-10-02T07:28:18.634Z,0.85
2022-10-02T07:30:56.077Z,1.20
2022-10-02T07:33:37.876Z,1.27
2022-10-02T07:36:13.962Z,1.00
2022-10-02T07:38:53.352Z,0.80
2022-10-02T07:41:20.970Z,0.77
2022-10-02T07:43:53.027Z,1.00
2022-10-02T07:46:20.404Z,1.10
2022-10-02T07:48:50.464Z,1.13
2022-10-02T07:51:47.513Z,1.00
2022-10-02T07:54:14.794Z,0.63
2022-10-02T07:56:42.497Z,0.93
2022-10-02T07:59:16.170Z,1.08
2022-10-02T08:01:44.473Z,0.90
2022-10-02T08:04:36.030Z,0.88
2022-10-02T08:07:05.240Z,1.00
2022-10-02T08:09:34.961Z,0.90
2022-10-02T08:12:20.825Z,1.10
2022-10-02T08:14:50.129Z,0.88
2022-10-02T08:17:17.290Z,0.80
2022-10-02T08:19:48.773Z,0.70
2022-10-02T08:22:48.351Z,0.68
2022-10-02T08:25:25.303Z,1.05
2022-10-02T08:27:56.888Z,0.82
2022-10-02T08:30:24.123Z,0.90
2022-10-02T08:32:51.350Z,1.33
2022-10-02T08:35:19.916Z,0.85
2022-10-02T08:37:53.069Z,0.88
2022-10-02T08:40:25.872Z,0.80
2022-10-02T08:43:12.115Z,0.90
2022-10-02T08:45:39.534Z,0.77
2022-10-02T08:48:22.573Z,0.82
2022-10-02T08:51:10.107Z,0.80
2022-10-02T08:53:49.222Z,0.80
2022-10-02T08:56:22.265Z,1.17
2022-10-02T08:58:58.235Z,1.13
2022-10-02T09:01:25.620Z,1.17
2022-10-02T09:03:59.241Z,0.90
2022-10-02T09:06:37.548Z,0.70
2022-10-02T09:09:24.154Z,0.70
2022-10-02T09:12:00.521Z,1.20
2022-10-02T09:14:38.665Z,0.82
2022-10-02T09:17:15.068Z,0.73
2022-10-02T09:19:50.207Z,0.57
2022-10-02T09:22:36.275Z,0.80
2022-10-02T09:25:18.818Z,1.17
2022-10-02T09:28:04.229Z,0.90
2022-10-02T09:30:50.442Z,0.70
2022-10-02T09:33:23.827Z,1.00
2022-10-02T09:35:51.010Z,0.63
2022-10-02T09:38:29.755Z,1.25
2022-10-02T09:41:10.616Z,0.63
2022-10-02T09:43:43.642Z,0.50
2022-10-02T09:46:13.700Z,0.50
2022-10-02T09:48:59.715Z,0.43
2022-10-02T09:51:41.802Z,0.57
2022-10-02T09:54:27.893Z,0.50
2022-10-02T09:57:15.724Z,0.50
2022-10-02T09:59:55.259Z,0.75
2022-10-02T10:02:41.152Z,0.47
2022-10-02T10:05:14.560Z,0.43
2022-10-02T10:07:58.120Z,0.47
2022-10-02T10:10:43.882Z,0.77
2022-10-02T10:13:12.371Z,0.75
2022-10-02T10:15:45.681Z,0.40
2022-10-02T10:18:31.458Z,0.57
2022-10-02T10:21:01.570Z,0.80
2022-10-02T10:23:36.371Z,0.50
2022-10-02T10:26:22.630Z,0.70
2022-10-02T10:28:49.797Z,0.70
2022-10-02T10:31:43.986Z,0.77
2022-10-02T10:34:20.131Z,0.70
2022-10-02T10:37:18.440Z,0.90
2022-10-02T10:39:46.213Z,0.63
2022-10-02T10:42:14.622Z,0.52
2022-10-02T10:44:47.771Z,0.60
2022-10-02T10:47:24.029Z,0.80
2022-10-02T10:50:18.725Z,0.90
2022-10-02T10:52:48.989Z,1.33
2022-10-02T10:55:21.861Z,0.60
2022-10-02T10:57:52.124Z,0.68
2022-10-02T11:00:19.310Z,0.70
2022-10-02T11:02:54.872Z,0.82
2022-10-02T11:05:22.369Z,0.70
2022-10-02T11:07:56.356Z,0.70
2022-10-02T11:10:42.115Z,0.60
2022-10-02T11:13:16.253Z,0.63
2022-10-02T11:15:46.321Z,0.65
2022-10-02T11:18:14.619Z,0.65
2022-10-02T11:20:47.709Z,1.00
2022-10-02T11:23:18.132Z,0.80
2022-10-02T11:25:57.657Z,0.70
2022-10-02T11:28:24.868Z,0.90
2022-10-02T11:31:10.934Z,0.77
2022-10-02T11:33:48.886Z,0.60
2022-10-02T11:36:41.683Z,0.70
2022-10-02T11:39:15.141Z,0.60
2022-10-02T11:42:01.424Z,0.75
2022-10-02T11:44:28.769Z,0.80
2022-10-02T11:47:14.769Z,0.80
2022-10-02T11:49:51.762Z,0.80
2022-10-02T11:52:37.832Z,1.08
2022-10-02T11:55:08.018Z,0.88
2022-10-02T11:57:38.733Z,1.17
2022-10-02T12:00:09.414Z,0.98
2022-10-02T12:02:45.611Z,0.82
2022-10-02T12:05:25.509Z,0.52
2022-10-02T12:08:01.592Z,0.88
2022-10-02T12:10:42.669Z,0.80
2022-10-02T12:13:28.485Z,0.90
2022-10-02T12:15:58.708Z,1.10
2022-10-02T12:18:44.741Z,0.90
2022-10-02T12:21:41.233Z,1.10
2022-10-02T12:25:01.109Z,1.10
2022-10-02T12:28:06.733Z,0.80
2022-10-02T12:30:42.258Z,1.20
2022-10-02T12:33:13.501Z,0.70
2022-10-02T12:35:43.754Z,1.00
2022-10-02T12:38:19.659Z,0.88
2022-10-02T12:40:57.289Z,0.80
2022-10-02T12:43:27.645Z,0.70
2022-10-02T12:45:58.276Z,0.90
2022-10-02T12:48:37.074Z,0.60
2022-10-02T12:51:05.978Z,1.13
2022-10-02T12:53:45.557Z,0.82
2022-10-02T12:56:31.367Z,0.75
2022-10-02T12:59:16.877Z,0.60
2022-10-02T13:01:44.497Z,0.57
2022-10-02T13:04:21.066Z,0.85
2022-10-02T13:06:48.665Z,0.60
2022-10-02T13:09:22.132Z,0.70
2022-10-02T13:12:07.658Z,0.90
2022-10-02T13:15:02.426Z,0.70
2022-10-02T13:17:35.992Z,0.75
2022-10-02T13:20:10.756Z,0.93
2022-10-02T13:23:00.806Z,0.80
2022-10-02T13:25:35.588Z,0.90
2022-10-02T13:28:06.435Z,0.55
2022-10-02T13:30:36.834Z,0.82
2022-10-02T13:33:06.088Z,0.95
2022-10-02T13:35:39.174Z,1.10
2022-10-02T13:38:24.069Z,1.00
2022-10-02T13:40:59.764Z,0.88
2022-10-02T13:43:45.489Z,0.95
2022-10-02T13:46:28.786Z,1.00
2022-10-02T13:49:15.190Z,2.30
2022-10-02T13:51:57.714Z,0.90
2022-10-02T13:54:38.325Z,0.60
2022-10-02T13:57:08.443Z,0.70
2022-10-02T13:59:54.532Z,0.98
2022-10-02T14:02:30.998Z,0.80
2022-10-02T14:04:58.204Z,1.15
2022-10-02T14:07:25.386Z,1.15
2022-10-02T14:10:11.640Z,0.73
2022-10-02T14:12:46.291Z,0.73
2022-10-02T14:15:31.084Z,3.00
2022-10-02T14:17:58.292Z,1.02
2022-10-02T14:20:45.833Z,0.90
2022-10-02T14:23:23.003Z,0.80
2022-10-02T14:25:53.221Z,0.80
2022-10-02T14:28:32.934Z,0.60
2022-10-02T14:31:06.389Z,0.50
2022-10-02T14:33:33.574Z,0.57
2022-10-02T14:36:01.187Z,0.88
2022-10-02T14:38:47.012Z,0.70
2022-10-02T14:41:37.791Z,0.80
2022-10-02T14:44:07.285Z,0.52
2022-10-02T14:46:35.980Z,0.50
2022-10-02T14:49:21.327Z,0.68
2022-10-02T14:52:26.771Z,0.55
2022-10-02T14:55:12.077Z,0.55
2022-10-02T14:57:51.096Z,0.70
2022-10-02T15:00:19.763Z,0.63
2022-10-02T15:02:47.453Z,0.70
2022-10-02T15:05:33.096Z,0.65
2022-10-02T15:08:00.613Z,0.80
2022-10-02T15:10:30.535Z,0.63
2022-10-02T15:13:01.990Z,0.40
2022-10-02T15:15:37.001Z,0.70
2022-10-02T15:18:23.028Z,0.50
2022-10-02T15:20:50.603Z,0.65
2022-10-02T15:23:40.366Z,0.47
2022-10-02T15:26:13.624Z,0.70
2022-10-02T15:29:03.835Z,0.68
2022-10-02T15:31:44.324Z,0.85
2022-10-02T15:34:30.448Z,0.70
2022-10-02T15:37:03.470Z,0.60
2022-10-02T15:39:39.840Z,0.70
2022-10-02T15:42:09.212Z,1.08
2022-10-02T15:44:51.574Z,0.80
2022-10-02T15:47:29.637Z,0.70
2022-10-02T15:50:05.793Z,0.50
2022-10-02T15:52:33.159Z,0.60
2022-10-02T15:55:16.075Z,0.70
2022-10-02T15:58:05.171Z,0.73
2022-10-02T16:00:55.692Z,0.77
2022-10-02T16:03:26.583Z,0.90
2022-10-02T16:05:55.940Z,0.60
2022-10-02T16:08:28.023Z,0.60
2022-10-02T16:11:13.756Z,0.60
2022-10-02T16:13:49.113Z,0.60
2022-10-02T16:16:16.341Z,1.20
2022-10-02T16:18:58.731Z,0.60
2022-10-02T16:21:40.242Z,0.73
2022-10-02T16:24:30.664Z,0.80
2022-10-02T16:27:07.421Z,0.60
2022-10-02T16:29:54.788Z,0.82
2022-10-02T16:32:32.847Z,0.60
2022-10-02T16:35:07.624Z,0.55
2022-10-02T16:37:53.806Z,0.95
2022-10-02T16:40:28.981Z,0.50
2022-10-02T16:43:12.912Z,0.70
2022-10-02T16:45:40.275Z,0.70
2022-10-02T16:48:22.431Z,0.80
2022-10-02T16:51:05.302Z,0.60
2022-10-02T16:56:07.460Z,0.98
2022-10-02T16:58:43.139Z,0.90
2022-10-02T17:01:22.389Z,0.70
2022-10-02T17:04:06.009Z,0.60
2022-10-02T17:06:39.582Z,0.65
2022-10-02T17:09:12.172Z,0.60
2022-10-02T17:11:59.934Z,0.70
2022-10-02T17:14:39.319Z,0.80
2022-10-02T17:17:35.815Z,0.90
2022-10-02T17:20:03.645Z,0.65
2022-10-02T17:22:49.422Z,1.00
2022-10-02T17:25:29.778Z,0.88
2022-10-02T17:28:00.898Z,0.77
2022-10-02T17:30:30.640Z,0.60
2022-10-02T17:33:15.129Z,1.08
2022-10-02T17:35:45.093Z,0.80
2022-10-02T17:38:22.971Z,0.77
2022-10-02T17:40:50.476Z,0.75
2022-10-02T17:43:37.234Z,1.48
2022-10-02T17:46:05.141Z,0.68
2022-10-02T17:48:47.349Z,0.95
2022-10-02T17:51:47.579Z,1.33
2022-10-02T17:54:49.056Z,1.17
2022-10-02T17:57:22.803Z,1.65
2022-10-02T18:00:08.165Z,1.08
2022-10-02T18:02:42.890Z,1.00
2022-10-02T18:05:19.078Z,0.95
2022-10-02T18:07:55.211Z,0.70
2022-10-02T18:10:31.084Z,0.75
2022-10-02T18:13:17.286Z,1.02
2022-10-02T18:16:03.578Z,0.80
2022-10-02T18:18:54.157Z,0.60
2022-10-02T18:21:47.634Z,2.20
2022-10-02T18:24:29.257Z,2.05
2022-10-02T18:27:08.361Z,1.80
2022-10-02T18:29:35.593Z,1.50
2022-10-02T18:32:06.453Z,1.45
2022-10-02T18:34:54.036Z,1.23
2022-10-02T18:37:41.570Z,1.25
2022-10-02T18:40:10.262Z,1.30
2022-10-02T18:42:40.852Z,0.80
2022-10-02T18:45:08.098Z,0.90
2022-10-02T18:47:55.471Z,0.80
2022-10-02T18:50:40.812Z,0.93
2022-10-02T18:53:17.089Z,0.93
2022-10-02T18:55:50.416Z,3.50
2022-10-02T18:58:26.562Z,4.13
2022-10-02T19:00:53.949Z,4.00
2022-10-02T19:03:31.749Z,3.40
2022-10-02T19:06:10.635Z,2.45
2022-10-02T19:08:50.915Z,2.33
2022-10-02T19:11:19.361Z,1.42
2022-10-02T19:13:49.052Z,1.30
2022-10-02T19:16:25.224Z,1.77
2022-10-02T19:19:12.813Z,1.67
2022-10-02T19:21:40.150Z,1.52
2022-10-02T19:24:09.175Z,1.30
2022-10-02T19:26:42.121Z,1.65
2022-10-02T19:29:21.489Z,1.05
2022-10-02T19:31:48.826Z,0.85
2022-10-02T19:34:22.009Z,0.90
2022-10-02T19:36:50.505Z,0.60
2022-10-02T19:39:38.109Z,0.70
2022-10-02T19:42:13.311Z,0.80
2022-10-02T19:44:42.037Z,0.77
2022-10-02T19:47:16.845Z,0.45
2022-10-02T19:49:47.424Z,1.40
2022-10-02T19:52:30.332Z,1.08
2022-10-02T19:57:26.541Z,0.55
2022-10-02T19:59:54.574Z,0.90
2022-10-02T20:02:35.504Z,0.93
2022-10-02T20:05:05.593Z,0.55
2022-10-02T20:07:34.947Z,0.80
2022-10-02T20:10:04.076Z,0.80
2022-10-02T20:12:37.865Z,0.70
2022-10-02T20:15:43.239Z,0.93
2022-10-02T20:18:11.314Z,0.85
2022-10-02T20:20:38.779Z,1.17
2022-10-02T20:23:07.872Z,0.50
2022-10-02T20:25:42.057Z,0.70
2022-10-02T20:28:15.540Z,0.90
2022-10-02T20:30:46.067Z,1.50
2022-10-02T20:33:16.624Z,0.80
2022-10-02T20:35:45.458Z,0.70
2022-10-02T20:38:31.417Z,1.00
2022-10-02T20:41:00.290Z,0.80
2022-10-02T20:44:02.192Z,1.35
2022-10-02T20:46:48.036Z,1.05
2022-10-02T20:49:21.366Z,1.10
2022-10-02T20:52:01.828Z,0.90
2022-10-02T20:54:54.177Z,1.50
2022-10-02T20:57:59.637Z,0.80
2022-10-02T21:00:28.807Z,0.93
2022-10-02T21:03:05.580Z,1.33
2022-10-02T21:05:38.937Z,1.15
2022-10-02T21:08:21.357Z,0.88
2022-10-02T21:10:54.646Z,0.70
2022-10-02T21:13:40.702Z,1.13
2022-10-02T21:16:21.069Z,0.88
2022-10-02T21:19:07.032Z,1.60
2022-10-02T21:21:53.926Z,0.98
2022-10-02T21:24:24.040Z,2.28
2022-10-02T21:27:03.189Z,0.85
2022-10-02T21:29:53.951Z,0.80
2022-10-02T21:32:24.995Z,1.05
2022-10-02T21:34:52.300Z,1.23
2022-10-02T21:37:22.256Z,1.30
2022-10-02T21:39:59.533Z,1.10
2022-10-02T21:42:31.733Z,0.90
2022-10-02T21:45:12.409Z,0.95
2022-10-02T21:47:53.168Z,0.65
2022-10-02T21:50:20.361Z,1.15
2022-10-02T21:53:07.955Z,0.75
2022-10-02T21:55:41.210Z,0.70
2022-10-02T21:58:17.280Z,0.60
2022-10-02T22:00:50.407Z,0.70
2022-10-02T22:03:40.712Z,0.82
2022-10-02T22:06:10.769Z,0.98
2022-10-02T22:08:38.843Z,0.88
2022-10-02T22:11:11.937Z,0.77
2022-10-02T22:13:40.702Z,0.90
2022-10-02T22:16:26.106Z,1.02
2022-10-02T22:18:53.369Z,1.10
2022-10-02T22:21:32.677Z,0.88
2022-10-02T22:24:07.838Z,0.80
2022-10-02T22:26:49.373Z,0.88
2022-10-02T22:29:19.650Z,1.10
2022-10-02T22:31:55.705Z,1.63
2022-10-02T22:34:25.601Z,1.33
2022-10-02T22:37:04.912Z,1.60
2022-10-02T22:39:34.231Z,2.08
2022-10-02T22:42:03.638Z,1.50
2022-10-02T22:44:34.355Z,1.60
2022-10-02T22:47:04.636Z,2.10
2022-10-02T22:49:37.616Z,1.17
2022-10-02T22:52:20.822Z,2.00
2022-10-02T22:55:06.949Z,2.15
2022-10-02T22:57:40.018Z,1.20
2022-10-02T23:00:17.272Z,1.23
2022-10-02T23:02:50.640Z,1.48
2022-10-02T23:05:37.691Z,1.17
2022-10-02T23:08:07.840Z,1.27
2022-10-02T23:10:40.748Z,1.38
2022-10-02T23:13:24.029Z,1.20
2022-10-02T23:16:10.155Z,1.55
2022-10-02T23:18:42.591Z,1.30
2022-10-02T23:21:12.916Z,1.08
2022-10-02T23:24:12.792Z,0.95
2022-10-02T23:26:44.753Z,1.23
2022-10-02T23:29:18.230Z,1.23
2022-10-02T23:31:50.355Z,1.17
2022-10-02T23:34:38.271Z,1.42
2022-10-02T23:37:13.773Z,1.20
2022-10-02T23:39:51.936Z,1.15
2022-10-02T23:42:27.057Z,1.40
2022-10-02T23:44:58.002Z,1.60
2022-10-02T23:47:32.708Z,1.73
2022-10-02T23:50:00.146Z,2.40
2022-10-02T23:52:36.290Z,2.20
2022-10-02T23:55:03.561Z,2.88
2022-10-02T23:57:49.268Z,2.97
